Time,TemperatureF,DewpointF,PressureIn,WindDirection,WindDirectionDegrees,WindSpeedMPH,WindSpeedGustMPH,Humidity,HourlyPrecipIn,Conditions,Clouds,dailyrainin,SolarRadiationWatts/m^2,SoftwareType,DateUTC
2013-03-03 00:01:00,53.1,43.9,30.05,WNW,292,2.0,4.0,71,0.00,,,0.00,0,HR-IXPWINDi_r2_v1.2.,2013-03-03 08:01:00,
2013-03-03 00:07:00,53.3,43.3,30.05,SE,138,0.0,4.0,69,0.00,,,0.00,0,HR-IXPWINDi_r2_v1.2.,2013-03-03 08:07:00,
2013-03-03 00:12:00,54.5,41.3,30.07,West,271,6.0,11.0,61,0.00,,,0.00,0,HR-IXPWINDi_r2_v1.2.,2013-03-03 08:12:00,
2013-03-03 00:17:00,55.4,42.6,30.07,East,96,0.0,11.0,62,0.00,,,0.00,0,HR-IXPWINDi_r2_v1.2.,2013-03-03 08:17:00,
2013-03-03 00:22:00,54.9,43.7,30.07,North,355,0.0,8.0,66,0.00,,,0.00,0,HR-IXPWINDi_r2_v1.2.,2013-03-03 08:22:00,
2013-03-03 00:27:00,54.8,44.8,30.07,SSE,166,0.0,4.0,69,0.00,,,0.00,0,HR-IXPWINDi_r2_v1.2.,2013-03-03 08:27:00,
2013-03-03 00:33:00,54.6,44.6,30.09,South,184,0.0,4.0,69,0.00,,,0.00,0,HR-IXPWINDi_r2_v1.2.,2013-03-03 08:33:00,
2013-03-03 00:38:00,55.1,43.5,30.08,NW,306,3.0,4.0,65,0.00,,,0.00,0,HR-IXPWINDi_r2_v1.2.,2013-03-03 08:38:00,
2013-03-03 00:43:00,55.5,43.5,30.08,NNW,340,1.0,4.0,64,0.00,,,0.00,0,HR-IXPWINDi_r2_v1.2.,2013-03-03 08:43:00,
2013-03-03 00:48:00,55.5,43.1,30.08,NW,311,2.0,4.0,63,0.00,,,0.00,0,HR-IXPWINDi_r2_v1.2.,2013-03-03 08:48:00,
2013-03-03 00:53:00,55.9,42.6,30.09,South,190,4.0,6.0,61,0.00,,,0.00,0,HR-IXPWINDi_r2_v1.2.,2013-03-03 08:53:00,
2013-03-03 00:58:00,55.9,42.6,30.07,North,5,4.0,7.0,61,0.00,,,0.00,0,HR-IXPWINDi_r2_v1.2.,2013-03-03 08:58:00,
2013-03-03 01:04:00,56.4,40.9,30.07,SSW,208,0.0,7.0,56,0.00,,,0.00,0,HR-IXPWINDi_r2_v1.2.,2013-03-03 09:04:00,
2013-03-03 01:09:00,58.2,40.6,30.07,SSW,209,2.0,7.0,52,0.00,,,0.00,0,HR-IXPWINDi_r2_v1.2.,2013-03-03 09:09:00,
2013-03-03 01:14:00,58.2,41.6,30.05,North,360,3.0,5.0,54,0.00,,,0.00,0,HR-IXPWINDi_r2_v1.2.,2013-03-03 09:14:00,
2013-03-03 01:19:00,57.7,42.1,30.04,WNW,294,3.0,4.0,56,0.00,,,0.00,0,HR-IXPWINDi_r2_v1.2.,2013-03-03 09:19:00,
2013-03-03 01:25:00,57.7,41.6,30.04,SE,136,1.0,5.0,55,0.00,,,0.00,0,HR-IXPWINDi_r2_v1.2.,2013-03-03 09:25:00,
2013-03-03 01:30:00,57.4,43.1,30.04,South,180,3.0,5.0,59,0.00,,,0.00,0,HR-IXPWINDi_r2_v1.2.,2013-03-03 09:30:00,
2013-03-03 01:35:00,57.1,45.0,30.04,SSE,156,3.0,5.0,64,0.00,,,0.00,0,HR-IXPWINDi_r2_v1.2.,2013-03-03 09:35:00,
2013-03-03 01:40:00,56.8,45.1,30.03,South,178,0.0,5.0,65,0.00,,,0.00,0,HR-IXPWINDi_r2_v1.2.,2013-03-03 09:40:00,
2013-03-03 01:45:00,56.7,44.2,30.03,South,178,0.0,3.0,63,0.00,,,0.00,0,HR-IXPWINDi_r2_v1.2.,2013-03-03 09:45:00,
2013-03-03 01:50:00,56.9,43.1,30.03,South,171,1.0,3.0,60,0.00,,,0.00,0,HR-IXPWINDi_r2_v1.2.,2013-03-03 09:50:00,
2013-03-03 01:56:00,57.0,42.8,30.03,South,171,0.0,2.0,59,0.00,,,0.00,0,HR-IXPWINDi_r2_v1.2.,2013-03-03 09:56:00,
2013-03-03 02:01:00,56.8,41.7,30.03,SSW,192,1.0,3.0,57,0.00,,,0.00,0,HR-IXPWINDi_r2_v1.2.,2013-03-03 10:01:00,
2013-03-03 02:06:00,57.0,41.4,30.03,SSW,192,0.0,3.0,56,0.00,,,0.00,0,HR-IXPWINDi_r2_v1.2.,2013-03-03 10:06:00,
2013-03-03 02:11:00,56.3,44.2,30.02,NNE,14,1.0,3.0,64,0.00,,,0.00,0,HR-IXPWINDi_r2_v1.2.,2013-03-03 10:11:00,
2013-03-03 02:16:00,56.1,44.4,30.02,North,11,1.0,3.0,65,0.00,,,0.00,0,HR-IXPWINDi_r2_v1.2.,2013-03-03 10:16:00,
2013-03-03 02:21:00,56.2,44.1,30.02,North,11,0.0,2.0,64,0.00,,,0.00,0,HR-IXPWINDi_r2_v1.2.,2013-03-03 10:21:00,
2013-03-03 02:27:00,56.2,44.1,30.01,North,11,0.0,1.0,64,0.00,,,0.00,0,HR-IXPWINDi_r2_v1.2.,2013-03-03 10:27:00,
2013-03-03 02:32:00,55.9,44.3,30.01,NE,47,0.0,1.0,65,0.00,,,0.00,0,HR-IXPWINDi_r2_v1.2.,2013-03-03 10:32:00,
2013-03-03 02:37:00,55.7,44.1,30.00,NW,306,0.0,1.0,65,0.00,,,0.00,0,HR-IXPWINDi_r2_v1.2.,2013-03-03 10:37:00,
2013-03-03 02:42:00,55.7,44.1,30.00,NW,306,0.0,0.0,65,0.00,,,0.00,0,HR-IXPWINDi_r2_v1.2.,2013-03-03 10:42:00,
2013-03-03 02:48:00,55.5,44.3,30.00,NNW,346,2.0,2.0,66,0.00,,,0.00,0,HR-IXPWINDi_r2_v1.2.,2013-03-03 10:48:00,
2013-03-03 02:53:00,55.5,43.9,30.00,North,355,0.0,3.0,65,0.00,,,0.00,0,HR-IXPWINDi_r2_v1.2.,2013-03-03 10:53:00,
2013-03-03 02:58:00,55.5,43.9,30.00,South,180,3.0,4.0,65,0.00,,,0.00,0,HR-IXPWINDi_r2_v1.2.,2013-03-03 10:58:00,
2013-03-03 03:03:00,55.5,43.9,30.01,SSW,192,0.0,4.0,65,0.00,,,0.00,0,HR-IXPWINDi_r2_v1.2.,2013-03-03 11:03:00,
2013-03-03 03:08:00,55.6,43.6,30.01,SSW,192,0.0,4.0,64,0.00,,,0.00,0,HR-IXPWINDi_r2_v1.2.,2013-03-03 11:08:00,
2013-03-03 03:13:00,55.4,43.8,30.01,SSW,192,0.0,2.0,65,0.00,,,0.00,0,HR-IXPWINDi_r2_v1.2.,2013-03-03 11:13:00,
2013-03-03 03:19:00,54.9,44.1,30.01,SSW,192,0.0,2.0,67,0.00,,,0.00,0,HR-IXPWINDi_r2_v1.2.,2013-03-03 11:19:00,
2013-03-03 03:24:00,54.9,44.1,30.01,SSW,196,1.0,2.0,67,0.00,,,0.00,0,HR-IXPWINDi_r2_v1.2.,2013-03-03 11:24:00,
2013-03-03 03:29:00,54.8,44.0,30.01,SSW,210,2.0,2.0,67,0.00,,,0.00,0,HR-IXPWINDi_r2_v1.2.,2013-03-03 11:29:00,
2013-03-03 03:34:00,54.6,44.2,30.00,WNW,287,5.0,5.0,68,0.00,,,0.00,0,HR-IXPWINDi_r2_v1.2.,2013-03-03 11:34:00,
2013-03-03 03:39:00,55.1,43.5,30.00,NW,310,1.0,5.0,65,0.00,,,0.00,0,HR-IXPWINDi_r2_v1.2.,2013-03-03 11:39:00,
2013-03-03 03:44:00,55.7,42.4,30.00,NW,315,3.0,5.0,61,0.00,,,0.00,0,HR-IXPWINDi_r2_v1.2.,2013-03-03 11:44:00,
2013-03-03 03:49:00,56.0,42.7,30.00,North,355,3.0,5.0,61,0.00,,,0.00,0,HR-IXPWINDi_r2_v1.2.,2013-03-03 11:49:00,
2013-03-03 03:54:00,56.4,41.8,30.00,NW,308,2.0,6.0,58,0.00,,,0.00,0,HR-IXPWINDi_r2_v1.2.,2013-03-03 11:54:00,
2013-03-03 04:00:00,57.2,41.1,30.00,WNW,294,1.0,6.0,55,0.00,,,0.00,0,HR-IXPWINDi_r2_v1.2.,2013-03-03 12:00:00,
2013-03-03 04:05:00,57.5,39.5,30.01,WNW,294,0.0,4.0,51,0.00,,,0.00,0,HR-IXPWINDi_r2_v1.2.,2013-03-03 12:05:00,
2013-03-03 04:10:00,57.7,41.6,30.01,WNW,294,0.0,3.0,55,0.00,,,0.00,0,HR-IXPWINDi_r2_v1.2.,2013-03-03 12:10:00,
2013-03-03 04:15:00,57.2,41.1,30.01,WNW,294,0.0,2.0,55,0.00,,,0.00,0,HR-IXPWINDi_r2_v1.2.,2013-03-03 12:15:00,
2013-03-03 04:20:00,57.0,40.9,30.01,West,265,2.0,2.0,55,0.00,,,0.00,0,HR-IXPWINDi_r2_v1.2.,2013-03-03 12:20:00,
2013-03-03 04:25:00,57.0,40.9,30.01,South,187,0.0,3.0,55,0.00,,,0.00,0,HR-IXPWINDi_r2_v1.2.,2013-03-03 12:25:00,
2013-03-03 04:31:00,56.8,41.7,30.02,South,187,0.0,3.0,57,0.00,,,0.00,0,HR-IXPWINDi_r2_v1.2.,2013-03-03 12:31:00,
2013-03-03 04:36:00,56.7,41.6,30.02,SW,224,1.0,2.0,57,0.00,,,0.00,0,HR-IXPWINDi_r2_v1.2.,2013-03-03 12:36:00,
2013-03-03 04:41:00,56.3,42.5,30.01,SW,224,0.0,2.0,60,0.00,,,0.00,0,HR-IXPWINDi_r2_v1.2.,2013-03-03 12:41:00,
2013-03-03 04:46:00,56.1,41.9,30.01,SW,224,0.0,1.0,59,0.00,,,0.00,0,HR-IXPWINDi_r2_v1.2.,2013-03-03 12:46:00,
2013-03-03 04:52:00,56.0,42.3,30.02,SW,224,0.0,1.0,60,0.00,,,0.00,0,HR-IXPWINDi_r2_v1.2.,2013-03-03 12:52:00,
2013-03-03 04:57:00,55.6,41.9,30.02,SW,224,0.0,1.0,60,0.00,,,0.00,0,HR-IXPWINDi_r2_v1.2.,2013-03-03 12:57:00,
2013-03-03 05:02:00,55.4,42.6,30.02,SW,224,0.0,1.0,62,0.00,,,0.00,0,HR-IXPWINDi_r2_v1.2.,2013-03-03 13:02:00,
2013-03-03 05:07:00,55.3,41.6,30.03,SW,224,0.0,2.0,60,0.00,,,0.00,0,HR-IXPWINDi_r2_v1.2.,2013-03-03 13:07:00,
2013-03-03 05:13:00,55.3,42.0,30.03,SW,224,1.0,2.0,61,0.00,,,0.00,0,HR-IXPWINDi_r2_v1.2.,2013-03-03 13:13:00,
2013-03-03 05:18:00,55.4,41.7,30.03,SW,223,0.0,2.0,60,0.00,,,0.00,0,HR-IXPWINDi_r2_v1.2.,2013-03-03 13:18:00,
2013-03-03 05:23:00,54.6,41.4,30.02,SW,223,0.0,2.0,61,0.00,,,0.00,0,HR-IXPWINDi_r2_v1.2.,2013-03-03 13:23:00,
2013-03-03 05:28:00,54.7,41.0,30.02,SW,223,1.0,2.0,60,0.00,,,0.00,0,HR-IXPWINDi_r2_v1.2.,2013-03-03 13:28:00,
2013-03-03 05:34:00,55.0,40.0,30.02,SW,224,1.0,2.0,57,0.00,,,0.00,0,HR-IXPWINDi_r2_v1.2.,2013-03-03 13:34:00,
2013-03-03 05:39:00,55.7,39.7,30.02,SW,224,0.0,2.0,55,0.00,,,0.00,0,HR-IXPWINDi_r2_v1.2.,2013-03-03 13:39:00,
2013-03-03 05:44:00,55.3,42.5,30.03,SW,224,0.0,2.0,62,0.00,,,0.00,0,HR-IXPWINDi_r2_v1.2.,2013-03-03 13:44:00,
2013-03-03 05:49:00,55.8,41.2,30.03,South,188,0.0,5.0,58,0.00,,,0.00,0,HR-IXPWINDi_r2_v1.2.,2013-03-03 13:49:00,
2013-03-03 05:54:00,56.7,42.9,30.03,SSW,198,0.0,5.0,60,0.00,,,0.00,0,HR-IXPWINDi_r2_v1.2.,2013-03-03 13:54:00,
2013-03-03 05:59:00,56.7,42.9,30.04,SSW,198,0.0,4.0,60,0.00,,,0.00,0,HR-IXPWINDi_r2_v1.2.,2013-03-03 13:59:00,
2013-03-03 06:05:00,56.6,43.7,30.04,SSW,202,1.0,2.0,62,0.00,,,0.00,0,HR-IXPWINDi_r2_v1.2.,2013-03-03 14:05:00,
2013-03-03 06:10:00,56.1,43.2,30.04,SSW,202,0.0,2.0,62,0.00,,,0.00,0,HR-IXPWINDi_r2_v1.2.,2013-03-03 14:10:00,
2013-03-03 06:15:00,55.3,42.5,30.04,SSW,202,0.0,2.0,62,0.00,,,0.00,0,HR-IXPWINDi_r2_v1.2.,2013-03-03 14:15:00,
2013-03-03 06:20:00,54.7,42.3,30.04,SSW,202,0.0,2.0,63,0.00,,,0.00,0,HR-IXPWINDi_r2_v1.2.,2013-03-03 14:20:00,
2013-03-03 06:25:00,54.4,42.4,30.04,SSW,202,0.0,2.0,64,0.00,,,0.00,0,HR-IXPWINDi_r2_v1.2.,2013-03-03 14:25:00,
2013-03-03 06:30:00,54.4,42.8,30.04,SSW,202,0.0,2.0,65,0.00,,,0.00,5,HR-IXPWINDi_r2_v1.2.,2013-03-03 14:30:00,
2013-03-03 06:35:00,54.0,42.8,30.04,SSW,202,0.0,0.0,66,0.00,,,0.00,7,HR-IXPWINDi_r2_v1.2.,2013-03-03 14:35:00,
2013-03-03 06:41:00,53.7,43.0,30.03,SSW,202,0.0,0.0,67,0.00,,,0.00,7,HR-IXPWINDi_r2_v1.2.,2013-03-03 14:41:00,
2013-03-03 06:46:00,53.5,43.1,30.03,SSW,202,0.0,1.0,68,0.00,,,0.00,11,HR-IXPWINDi_r2_v1.2.,2013-03-03 14:46:00,
2013-03-03 06:51:00,53.7,43.3,30.03,SSW,202,0.0,1.0,68,0.00,,,0.00,12,HR-IXPWINDi_r2_v1.2.,2013-03-03 14:51:00,
2013-03-03 06:56:00,53.7,43.7,30.03,SSW,202,0.0,1.0,69,0.00,,,0.00,18,HR-IXPWINDi_r2_v1.2.,2013-03-03 14:56:00,
2013-03-03 07:01:00,53.8,43.8,30.03,SSW,202,0.0,0.0,69,0.00,,,0.00,19,HR-IXPWINDi_r2_v1.2.,2013-03-03 15:01:00,
2013-03-03 07:06:00,53.8,43.8,30.02,SSW,202,0.0,0.0,69,0.00,,,0.00,21,HR-IXPWINDi_r2_v1.2.,2013-03-03 15:06:00,
2013-03-03 07:12:00,54.0,44.8,30.03,SSW,202,0.0,0.0,71,0.00,,,0.00,26,HR-IXPWINDi_r2_v1.2.,2013-03-03 15:12:00,
2013-03-03 07:17:00,54.1,44.9,30.03,SSW,202,0.0,0.0,71,0.00,,,0.00,32,HR-IXPWINDi_r2_v1.2.,2013-03-03 15:17:00,
2013-03-03 07:22:00,54.2,43.8,30.03,SSW,202,0.0,0.0,68,0.00,,,0.00,25,HR-IXPWINDi_r2_v1.2.,2013-03-03 15:22:00,
2013-03-03 07:27:00,54.6,44.6,30.04,SSW,202,0.0,2.0,69,0.00,,,0.00,26,HR-IXPWINDi_r2_v1.2.,2013-03-03 15:27:00,
2013-03-03 07:32:00,54.6,45.3,30.03,SSW,202,0.0,2.0,71,0.00,,,0.00,30,HR-IXPWINDi_r2_v1.2.,2013-03-03 15:32:00,
2013-03-03 07:37:00,54.8,45.5,30.03,SSW,199,1.0,1.0,71,0.00,,,0.00,28,HR-IXPWINDi_r2_v1.2.,2013-03-03 15:37:00,
2013-03-03 07:43:00,55.0,45.7,30.03,SSW,199,0.0,2.0,71,0.00,,,0.00,26,HR-IXPWINDi_r2_v1.2.,2013-03-03 15:43:00,
2013-03-03 07:48:00,55.0,45.7,30.04,SSW,204,1.0,2.0,71,0.00,,,0.00,23,HR-IXPWINDi_r2_v1.2.,2013-03-03 15:48:00,
2013-03-03 07:53:00,55.3,45.3,30.04,SSW,205,0.0,2.0,69,0.00,,,0.00,35,HR-IXPWINDi_r2_v1.2.,2013-03-03 15:53:00,
2013-03-03 07:58:00,55.6,45.9,30.05,SSW,205,0.0,2.0,70,0.00,,,0.00,44,HR-IXPWINDi_r2_v1.2.,2013-03-03 15:58:00,
2013-03-03 08:04:00,55.6,46.3,30.05,SSW,205,1.0,1.0,71,0.00,,,0.00,56,HR-IXPWINDi_r2_v1.2.,2013-03-03 16:04:00,
2013-03-03 08:09:00,56.0,46.3,30.04,SSW,205,0.0,1.0,70,0.00,,,0.00,70,HR-IXPWINDi_r2_v1.2.,2013-03-03 16:09:00,
2013-03-03 08:14:00,56.6,47.6,30.04,SSW,205,0.0,1.0,72,0.00,,,0.00,109,HR-IXPWINDi_r2_v1.2.,2013-03-03 16:14:00,
2013-03-03 08:19:00,57.1,48.5,30.03,SSW,205,1.0,1.0,73,0.00,,,0.00,111,HR-IXPWINDi_r2_v1.2.,2013-03-03 16:19:00,
2013-03-03 08:24:00,57.1,48.1,30.04,SSW,202,2.0,4.0,72,0.00,,,0.00,120,HR-IXPWINDi_r2_v1.2.,2013-03-03 16:24:00,
2013-03-03 08:30:00,57.4,48.8,30.04,SSW,202,0.0,4.0,73,0.00,,,0.00,148,HR-IXPWINDi_r2_v1.2.,2013-03-03 16:30:00,
2013-03-03 08:35:00,57.7,48.7,30.04,SSW,202,0.0,2.0,72,0.00,,,0.00,123,HR-IXPWINDi_r2_v1.2.,2013-03-03 16:35:00,
2013-03-03 08:40:00,57.8,48.8,30.04,SSW,202,0.0,1.0,72,0.00,,,0.00,100,HR-IXPWINDi_r2_v1.2.,2013-03-03 16:40:00,
2013-03-03 08:45:00,57.8,48.0,30.04,SSW,202,0.0,1.0,70,0.00,,,0.00,98,HR-IXPWINDi_r2_v1.2.,2013-03-03 16:45:00,
2013-03-03 08:50:00,57.7,47.9,30.04,SSW,202,0.0,1.0,70,0.00,,,0.00,90,HR-IXPWINDi_r2_v1.2.,2013-03-03 16:50:00,
2013-03-03 08:56:00,58.1,48.7,30.04,SSW,202,0.0,1.0,71,0.00,,,0.00,100,HR-IXPWINDi_r2_v1.2.,2013-03-03 16:56:00,
2013-03-03 09:01:00,58.3,48.5,30.04,SSW,202,0.0,2.0,70,0.00,,,0.00,102,HR-IXPWINDi_r2_v1.2.,2013-03-03 17:01:00,
2013-03-03 09:06:00,58.7,48.9,30.04,South,187,0.0,3.0,70,0.00,,,0.00,105,HR-IXPWINDi_r2_v1.2.,2013-03-03 17:06:00,
2013-03-03 09:11:00,58.7,48.9,30.05,South,187,0.0,3.0,70,0.00,,,0.00,121,HR-IXPWINDi_r2_v1.2.,2013-03-03 17:11:00,
2013-03-03 09:17:00,58.9,49.5,30.05,South,187,0.0,1.0,71,0.00,,,0.00,141,HR-IXPWINDi_r2_v1.2.,2013-03-03 17:17:00,
2013-03-03 09:22:00,59.3,49.5,30.04,South,169,0.0,2.0,70,0.00,,,0.00,213,HR-IXPWINDi_r2_v1.2.,2013-03-03 17:22:00,
2013-03-03 09:27:00,60.2,50.3,30.05,SSE,167,1.0,2.0,70,0.00,,,0.00,301,HR-IXPWINDi_r2_v1.2.,2013-03-03 17:27:00,
2013-03-03 09:33:00,61.3,49.4,30.05,SE,145,0.0,2.0,65,0.00,,,0.00,304,HR-IXPWINDi_r2_v1.2.,2013-03-03 17:33:00,
2013-03-03 09:38:00,61.4,49.1,30.04,SE,141,0.0,2.0,64,0.00,,,0.00,279,HR-IXPWINDi_r2_v1.2.,2013-03-03 17:38:00,
2013-03-03 09:43:00,61.5,49.6,30.04,SE,141,1.0,2.0,65,0.00,,,0.00,253,HR-IXPWINDi_r2_v1.2.,2013-03-03 17:43:00,
2013-03-03 09:48:00,62.5,48.8,30.04,SE,141,2.0,3.0,61,0.00,,,0.00,279,HR-IXPWINDi_r2_v1.2.,2013-03-03 17:48:00,
2013-03-03 09:53:00,62.8,46.3,30.04,SE,141,0.0,3.0,55,0.00,,,0.00,677,HR-IXPWINDi_r2_v1.2.,2013-03-03 17:53:00,
2013-03-03 09:59:00,64.6,44.4,30.03,NE,42,2.0,3.0,48,0.00,,,0.00,780,HR-IXPWINDi_r2_v1.2.,2013-03-03 17:59:00,
2013-03-03 10:04:00,65.8,46.6,30.03,NE,42,1.0,3.0,50,0.00,,,0.00,322,HR-IXPWINDi_r2_v1.2.,2013-03-03 18:04:00,
2013-03-03 10:09:00,65.7,43.7,30.03,ESE,121,2.0,3.0,45,0.00,,,0.00,332,HR-IXPWINDi_r2_v1.2.,2013-03-03 18:09:00,
2013-03-03 10:14:00,66.5,42.7,30.03,ESE,121,0.0,3.0,42,0.00,,,0.00,378,HR-IXPWINDi_r2_v1.2.,2013-03-03 18:14:00,
2013-03-03 10:19:00,67.1,42.6,30.03,South,169,1.0,5.0,41,0.00,,,0.00,387,HR-IXPWINDi_r2_v1.2.,2013-03-03 18:19:00,
2013-03-03 10:25:00,67.3,48.0,30.03,South,173,3.0,6.0,50,0.00,,,0.00,503,HR-IXPWINDi_r2_v1.2.,2013-03-03 18:25:00,
2013-03-03 10:30:00,67.8,49.0,30.03,SSE,149,2.0,6.0,51,0.00,,,0.00,350,HR-IXPWINDi_r2_v1.2.,2013-03-03 18:30:00,
2013-03-03 10:35:00,66.9,47.6,30.03,SSE,158,5.0,7.0,50,0.00,,,0.00,323,HR-IXPWINDi_r2_v1.2.,2013-03-03 18:35:00,
2013-03-03 10:40:00,66.1,47.4,30.02,South,189,4.0,7.0,51,0.00,,,0.00,341,HR-IXPWINDi_r2_v1.2.,2013-03-03 18:40:00,
2013-03-03 10:45:00,66.4,46.1,30.02,SSE,150,2.0,6.0,48,0.00,,,0.00,417,HR-IXPWINDi_r2_v1.2.,2013-03-03 18:45:00,
2013-03-03 10:50:00,66.9,44.8,30.02,SSE,150,1.0,6.0,45,0.00,,,0.00,373,HR-IXPWINDi_r2_v1.2.,2013-03-03 18:50:00,
2013-03-03 10:56:00,68.0,45.8,30.02,South,186,5.0,6.0,45,0.00,,,0.00,497,HR-IXPWINDi_r2_v1.2.,2013-03-03 18:56:00,
2013-03-03 11:01:00,68.0,45.2,30.02,SE,131,1.0,6.0,44,0.00,,,0.00,494,HR-IXPWINDi_r2_v1.2.,2013-03-03 19:01:00,
2013-03-03 11:06:00,68.5,46.9,30.02,SSE,149,1.0,5.0,46,0.00,,,0.00,318,HR-IXPWINDi_r2_v1.2.,2013-03-03 19:06:00,
2013-03-03 11:11:00,67.9,46.3,30.02,SSE,167,2.0,5.0,46,0.00,,,0.00,411,HR-IXPWINDi_r2_v1.2.,2013-03-03 19:11:00,
2013-03-03 11:16:00,67.5,48.7,30.01,South,180,0.0,5.0,51,0.00,,,0.00,346,HR-IXPWINDi_r2_v1.2.,2013-03-03 19:16:00,
2013-03-03 11:22:00,68.9,46.0,30.01,SSW,197,3.0,5.0,44,0.00,,,0.00,603,HR-IXPWINDi_r2_v1.2.,2013-03-03 19:22:00,
2013-03-03 11:27:00,67.9,46.3,30.01,SW,234,1.0,6.0,46,0.00,,,0.00,715,HR-IXPWINDi_r2_v1.2.,2013-03-03 19:27:00,
2013-03-03 11:33:00,68.6,45.8,30.00,South,173,1.0,7.0,44,0.00,,,0.00,587,HR-IXPWINDi_r2_v1.2.,2013-03-03 19:33:00,
2013-03-03 11:38:00,70.3,44.8,30.00,ENE,70,0.0,7.0,40,0.00,,,0.00,654,HR-IXPWINDi_r2_v1.2.,2013-03-03 19:38:00,
2013-03-03 11:43:00,70.8,44.6,29.99,SSW,198,3.0,6.0,39,0.00,,,0.00,663,HR-IXPWINDi_r2_v1.2.,2013-03-03 19:43:00,
2013-03-03 11:48:00,71.6,43.9,29.99,ESE,113,1.0,6.0,37,0.00,,,0.00,564,HR-IXPWINDi_r2_v1.2.,2013-03-03 19:48:00,
2013-03-03 11:53:00,72.4,45.3,29.99,ENE,70,1.0,5.0,38,0.00,,,0.00,650,HR-IXPWINDi_r2_v1.2.,2013-03-03 19:53:00,
2013-03-03 11:58:00,72.9,45.8,29.99,South,188,4.0,7.0,38,0.00,,,0.00,912,HR-IXPWINDi_r2_v1.2.,2013-03-03 19:58:00,
2013-03-03 12:04:00,72.2,43.7,29.99,SSE,163,3.0,10.0,36,0.00,,,0.00,573,HR-IXPWINDi_r2_v1.2.,2013-03-03 20:04:00,
2013-03-03 12:09:00,71.1,42.0,29.98,SSE,150,2.0,10.0,35,0.00,,,0.00,554,HR-IXPWINDi_r2_v1.2.,2013-03-03 20:09:00,
2013-03-03 12:14:00,71.5,42.4,29.98,SSW,212,7.0,8.0,35,0.00,,,0.00,515,HR-IXPWINDi_r2_v1.2.,2013-03-03 20:14:00,
2013-03-03 12:20:00,70.3,42.8,29.98,South,190,1.0,8.0,37,0.00,,,0.00,543,HR-IXPWINDi_r2_v1.2.,2013-03-03 20:20:00,
2013-03-03 12:25:00,70.9,42.6,29.98,SSW,194,5.0,8.0,36,0.00,,,0.00,432,HR-IXPWINDi_r2_v1.2.,2013-03-03 20:25:00,
2013-03-03 12:30:00,70.0,42.5,29.98,SSE,155,0.0,7.0,37,0.00,,,0.00,367,HR-IXPWINDi_r2_v1.2.,2013-03-03 20:30:00,
2013-03-03 12:35:00,69.8,42.3,29.98,South,185,1.0,7.0,37,0.00,,,0.00,304,HR-IXPWINDi_r2_v1.2.,2013-03-03 20:35:00,
2013-03-03 12:40:00,69.4,42.7,29.97,SSW,196,4.0,7.0,38,0.00,,,0.00,313,HR-IXPWINDi_r2_v1.2.,2013-03-03 20:40:00,
2013-03-03 12:46:00,69.0,42.3,29.97,South,184,3.0,8.0,38,0.00,,,0.00,272,HR-IXPWINDi_r2_v1.2.,2013-03-03 20:46:00,
2013-03-03 12:51:00,68.4,43.7,29.97,SSW,200,7.0,10.0,41,0.00,,,0.00,292,HR-IXPWINDi_r2_v1.2.,2013-03-03 20:51:00,
2013-03-03 12:56:00,67.9,46.3,29.97,South,183,9.0,10.0,46,0.00,,,0.00,378,HR-IXPWINDi_r2_v1.2.,2013-03-03 20:56:00,
2013-03-03 13:01:00,67.9,45.7,29.97,SE,146,3.0,11.0,45,0.00,,,0.00,376,HR-IXPWINDi_r2_v1.2.,2013-03-03 21:01:00,
2013-03-03 13:06:00,68.0,47.0,29.96,South,186,2.0,11.0,47,0.00,,,0.00,378,HR-IXPWINDi_r2_v1.2.,2013-03-03 21:06:00,
2013-03-03 13:12:00,68.3,49.4,29.96,SSE,167,3.0,9.0,51,0.00,,,0.00,408,HR-IXPWINDi_r2_v1.2.,2013-03-03 21:12:00,
2013-03-03 13:17:00,68.3,49.4,29.96,SSE,163,3.0,9.0,51,0.00,,,0.00,366,HR-IXPWINDi_r2_v1.2.,2013-03-03 21:17:00,
2013-03-03 13:22:00,69.6,51.1,29.96,SE,136,5.0,8.0,52,0.00,,,0.00,436,HR-IXPWINDi_r2_v1.2.,2013-03-03 21:22:00,
2013-03-03 13:27:00,70.3,50.2,29.96,SSW,192,0.0,8.0,49,0.00,,,0.00,510,HR-IXPWINDi_r2_v1.2.,2013-03-03 21:27:00,
2013-03-03 13:33:00,71.5,50.2,29.96,SSE,167,7.0,9.0,47,0.00,,,0.00,745,HR-IXPWINDi_r2_v1.2.,2013-03-03 21:33:00,
2013-03-03 13:38:00,70.9,50.2,29.96,South,186,5.0,9.0,48,0.00,,,0.00,679,HR-IXPWINDi_r2_v1.2.,2013-03-03 21:38:00,
2013-03-03 13:43:00,71.7,49.8,29.96,South,185,4.0,8.0,46,0.00,,,0.00,622,HR-IXPWINDi_r2_v1.2.,2013-03-03 21:43:00,
2013-03-03 13:48:00,70.3,49.6,29.96,SSW,199,4.0,10.0,48,0.00,,,0.00,374,HR-IXPWINDi_r2_v1.2.,2013-03-03 21:48:00,
2013-03-03 13:54:00,69.7,49.6,29.96,South,188,4.0,10.0,49,0.00,,,0.00,392,HR-IXPWINDi_r2_v1.2.,2013-03-03 21:54:00,
2013-03-03 13:59:00,69.9,50.4,29.96,South,171,7.0,10.0,50,0.00,,,0.00,441,HR-IXPWINDi_r2_v1.2.,2013-03-03 21:59:00,
2013-03-03 14:04:00,69.9,50.4,29.96,East,98,3.0,9.0,50,0.00,,,0.00,527,HR-IXPWINDi_r2_v1.2.,2013-03-03 22:04:00,
2013-03-03 14:09:00,68.8,49.9,29.96,SSE,165,1.0,9.0,51,0.00,,,0.00,552,HR-IXPWINDi_r2_v1.2.,2013-03-03 22:09:00,
2013-03-03 14:14:00,69.6,52.2,29.95,South,173,7.0,9.0,54,0.00,,,0.00,592,HR-IXPWINDi_r2_v1.2.,2013-03-03 22:14:00,
2013-03-03 14:19:00,68.2,51.4,29.95,SSE,167,2.0,8.0,55,0.00,,,0.00,468,HR-IXPWINDi_r2_v1.2.,2013-03-03 22:19:00,
2013-03-03 14:24:00,67.8,50.5,29.95,South,178,5.0,9.0,54,0.00,,,0.00,557,HR-IXPWINDi_r2_v1.2.,2013-03-03 22:24:00,
2013-03-03 14:30:00,67.0,50.3,29.95,South,187,3.0,10.0,55,0.00,,,0.00,540,HR-IXPWINDi_r2_v1.2.,2013-03-03 22:30:00,
2013-03-03 14:35:00,66.2,50.5,29.95,South,175,3.0,10.0,57,0.00,,,0.00,397,HR-IXPWINDi_r2_v1.2.,2013-03-03 22:35:00,
2013-03-03 14:40:00,66.4,52.0,29.95,SE,144,2.0,11.0,60,0.00,,,0.00,548,HR-IXPWINDi_r2_v1.2.,2013-03-03 22:40:00,
2013-03-03 14:45:00,66.3,52.8,29.95,SSE,163,4.0,11.0,62,0.00,,,0.00,480,HR-IXPWINDi_r2_v1.2.,2013-03-03 22:45:00,
2013-03-03 14:50:00,65.3,51.9,29.95,SSE,168,3.0,9.0,62,0.00,,,0.00,339,HR-IXPWINDi_r2_v1.2.,2013-03-03 22:50:00,
2013-03-03 14:55:00,66.1,53.1,29.95,South,181,3.0,9.0,63,0.00,,,0.00,360,HR-IXPWINDi_r2_v1.2.,2013-03-03 22:55:00,
2013-03-03 15:01:00,66.4,52.5,29.95,South,172,6.0,11.0,61,0.00,,,0.00,348,HR-IXPWINDi_r2_v1.2.,2013-03-03 23:01:00,
2013-03-03 15:06:00,64.9,52.4,29.95,South,191,8.0,11.0,64,0.00,,,0.00,443,HR-IXPWINDi_r2_v1.2.,2013-03-03 23:06:00,
2013-03-03 15:11:00,64.9,52.8,29.95,South,169,4.0,11.0,65,0.00,,,0.00,503,HR-IXPWINDi_r2_v1.2.,2013-03-03 23:11:00,
2013-03-03 15:16:00,64.9,53.2,29.95,South,179,5.0,11.0,66,0.00,,,0.00,471,HR-IXPWINDi_r2_v1.2.,2013-03-03 23:16:00,
2013-03-03 15:22:00,65.2,52.2,29.95,SSW,202,7.0,11.0,63,0.00,,,0.00,360,HR-IXPWINDi_r2_v1.2.,2013-03-03 23:22:00,
2013-03-03 15:27:00,64.1,52.0,29.95,SE,124,6.0,10.0,65,0.00,,,0.00,478,HR-IXPWINDi_r2_v1.2.,2013-03-03 23:27:00,
2013-03-03 15:32:00,64.3,52.2,29.95,South,170,7.0,10.0,65,0.00,,,0.00,424,HR-IXPWINDi_r2_v1.2.,2013-03-03 23:32:00,
2013-03-03 15:37:00,63.5,51.5,29.95,SSE,159,8.0,9.0,65,0.00,,,0.00,410,HR-IXPWINDi_r2_v1.2.,2013-03-03 23:37:00,
2013-03-03 15:42:00,62.9,51.3,29.95,South,173,6.0,11.0,66,0.00,,,0.00,404,HR-IXPWINDi_r2_v1.2.,2013-03-03 23:42:00,
2013-03-03 15:47:00,62.9,51.3,29.94,South,180,2.0,11.0,66,0.00,,,0.00,373,HR-IXPWINDi_r2_v1.2.,2013-03-03 23:47:00,
2013-03-03 15:53:00,63.1,51.9,29.95,SSE,155,2.0,8.0,67,0.00,,,0.00,246,HR-IXPWINDi_r2_v1.2.,2013-03-03 23:53:00,
2013-03-03 15:58:00,63.4,52.2,29.95,SSE,165,4.0,7.0,67,0.00,,,0.00,323,HR-IXPWINDi_r2_v1.2.,2013-03-03 23:58:00,
2013-03-03 16:03:00,63.7,52.1,29.95,South,178,2.0,7.0,66,0.00,,,0.00,322,HR-IXPWINDi_r2_v1.2.,2013-03-04 00:03:00,
2013-03-03 16:08:00,63.4,51.8,29.94,South,184,2.0,6.0,66,0.00,,,0.00,295,HR-IXPWINDi_r2_v1.2.,2013-03-04 00:08:00,
2013-03-03 16:13:00,62.5,51.7,29.94,WNW,298,2.0,6.0,68,0.00,,,0.00,258,HR-IXPWINDi_r2_v1.2.,2013-03-04 00:13:00,
2013-03-03 16:18:00,61.2,51.7,29.94,SW,228,2.0,9.0,71,0.00,,,0.00,172,HR-IXPWINDi_r2_v1.2.,2013-03-04 00:18:00,
2013-03-03 16:24:00,60.5,51.4,29.94,SW,221,2.0,9.0,72,0.00,,,0.00,72,HR-IXPWINDi_r2_v1.2.,2013-03-04 00:24:00,
2013-03-03 16:29:00,59.9,51.9,29.94,SSW,193,3.0,4.0,75,0.00,,,0.00,63,HR-IXPWINDi_r2_v1.2.,2013-03-04 00:29:00,
2013-03-03 16:34:00,59.6,51.6,29.94,SSW,202,2.0,6.0,75,0.00,,,0.00,58,HR-IXPWINDi_r2_v1.2.,2013-03-04 00:34:00,
2013-03-03 16:40:00,59.2,51.6,29.94,SW,235,1.0,6.0,76,0.00,,,0.00,53,HR-IXPWINDi_r2_v1.2.,2013-03-04 00:40:00,
2013-03-03 16:45:00,58.7,51.4,29.94,SSE,167,4.0,6.0,77,0.00,,,0.00,47,HR-IXPWINDi_r2_v1.2.,2013-03-04 00:45:00,
2013-03-03 16:50:00,58.4,51.5,29.94,South,184,2.0,8.0,78,0.00,,,0.00,42,HR-IXPWINDi_r2_v1.2.,2013-03-04 00:50:00,
2013-03-03 16:55:00,58.2,51.7,29.94,South,178,2.0,8.0,79,0.00,,,0.00,39,HR-IXPWINDi_r2_v1.2.,2013-03-04 00:55:00,
2013-03-03 17:01:00,58.0,51.8,29.94,South,188,6.0,7.0,80,0.00,,,0.00,37,HR-IXPWINDi_r2_v1.2.,2013-03-04 01:01:00,
2013-03-03 17:06:00,57.7,51.5,29.94,South,185,4.0,8.0,80,0.00,,,0.00,33,HR-IXPWINDi_r2_v1.2.,2013-03-04 01:06:00,
2013-03-03 17:11:00,57.3,51.5,29.95,South,181,5.0,9.0,81,0.00,,,0.00,32,HR-IXPWINDi_r2_v1.2.,2013-03-04 01:11:00,
2013-03-03 17:16:00,56.9,51.4,29.95,South,179,5.0,9.0,82,0.00,,,0.00,28,HR-IXPWINDi_r2_v1.2.,2013-03-04 01:16:00,
2013-03-03 17:22:00,56.6,51.4,29.95,South,178,1.0,9.0,83,0.00,,,0.00,25,HR-IXPWINDi_r2_v1.2.,2013-03-04 01:22:00,
2013-03-03 17:27:00,56.3,51.5,29.95,SSE,168,2.0,8.0,84,0.00,,,0.00,21,HR-IXPWINDi_r2_v1.2.,2013-03-04 01:27:00,
2013-03-03 17:32:00,56.0,51.2,29.95,SSE,168,3.0,9.0,84,0.00,,,0.00,18,HR-IXPWINDi_r2_v1.2.,2013-03-04 01:32:00,
2013-03-03 17:37:00,55.7,51.2,29.95,SSE,159,1.0,9.0,85,0.00,,,0.00,14,HR-IXPWINDi_r2_v1.2.,2013-03-04 01:37:00,
2013-03-03 17:43:00,55.5,51.0,29.95,SE,144,0.0,8.0,85,0.00,,,0.00,11,HR-IXPWINDi_r2_v1.2.,2013-03-04 01:43:00,
2013-03-03 17:48:00,55.2,51.0,29.95,WSW,244,0.0,4.0,86,0.00,,,0.00,7,HR-IXPWINDi_r2_v1.2.,2013-03-04 01:48:00,
2013-03-03 17:53:00,55.0,50.8,29.95,WSW,254,1.0,6.0,86,0.00,,,0.00,0,HR-IXPWINDi_r2_v1.2.,2013-03-04 01:53:00,
2013-03-03 17:58:00,54.7,50.8,29.95,South,190,3.0,6.0,87,0.00,,,0.00,0,HR-IXPWINDi_r2_v1.2.,2013-03-04 01:58:00,
2013-03-03 18:03:00,54.5,50.6,29.95,SSW,196,4.0,6.0,87,0.00,,,0.00,0,HR-IXPWINDi_r2_v1.2.,2013-03-04 02:03:00,
2013-03-03 18:09:00,54.3,50.8,29.95,South,180,1.0,6.0,88,0.00,,,0.00,0,HR-IXPWINDi_r2_v1.2.,2013-03-04 02:09:00,
2013-03-03 18:14:00,54.0,50.5,29.95,South,177,4.0,5.0,88,0.00,,,0.00,0,HR-IXPWINDi_r2_v1.2.,2013-03-04 02:14:00,
2013-03-03 18:19:00,53.7,50.2,29.95,South,182,0.0,5.0,88,0.00,,,0.00,0,HR-IXPWINDi_r2_v1.2.,2013-03-04 02:19:00,
2013-03-03 18:24:00,53.5,50.3,29.95,SSW,196,1.0,5.0,89,0.00,,,0.00,0,HR-IXPWINDi_r2_v1.2.,2013-03-04 02:24:00,
2013-03-03 18:30:00,53.3,50.1,29.95,WSW,250,3.0,4.0,89,0.00,,,0.00,0,HR-IXPWINDi_r2_v1.2.,2013-03-04 02:30:00,
2013-03-03 18:35:00,53.3,50.4,29.96,West,263,1.0,4.0,90,0.00,,,0.00,0,HR-IXPWINDi_r2_v1.2.,2013-03-04 02:35:00,
2013-03-03 18:40:00,53.2,50.3,29.96,WSW,256,1.0,3.0,90,0.00,,,0.00,0,HR-IXPWINDi_r2_v1.2.,2013-03-04 02:40:00,
2013-03-03 18:46:00,53.2,50.3,29.96,WSW,256,0.0,2.0,90,0.00,,,0.00,0,HR-IXPWINDi_r2_v1.2.,2013-03-04 02:46:00,
2013-03-03 18:51:00,53.2,50.3,29.96,WSW,256,0.0,2.0,90,0.00,,,0.00,0,HR-IXPWINDi_r2_v1.2.,2013-03-04 02:51:00,
2013-03-03 18:56:00,53.3,50.4,29.96,WSW,256,0.0,1.0,90,0.00,,,0.00,0,HR-IXPWINDi_r2_v1.2.,2013-03-04 02:56:00,
2013-03-03 19:01:00,53.4,50.5,29.96,WSW,256,0.0,0.0,90,0.00,,,0.00,0,HR-IXPWINDi_r2_v1.2.,2013-03-04 03:01:00,
2013-03-03 19:07:00,53.5,50.6,29.96,WSW,256,0.0,1.0,90,0.00,,,0.00,0,HR-IXPWINDi_r2_v1.2.,2013-03-04 03:07:00,
2013-03-03 19:12:00,53.5,50.6,29.97,WSW,256,0.0,2.0,90,0.00,,,0.00,0,HR-IXPWINDi_r2_v1.2.,2013-03-04 03:12:00,
2013-03-03 19:17:00,53.5,50.6,29.97,WSW,256,0.0,2.0,90,0.00,,,0.00,0,HR-IXPWINDi_r2_v1.2.,2013-03-04 03:17:00,
2013-03-03 19:22:00,53.6,50.7,29.97,WSW,256,1.0,2.0,90,0.00,,,0.00,0,HR-IXPWINDi_r2_v1.2.,2013-03-04 03:22:00,
2013-03-03 19:27:00,53.6,50.7,29.97,SW,233,0.0,2.0,90,0.00,,,0.00,0,HR-IXPWINDi_r2_v1.2.,2013-03-04 03:27:00,
2013-03-03 19:33:00,53.8,50.9,29.97,SW,232,0.0,2.0,90,0.00,,,0.00,0,HR-IXPWINDi_r2_v1.2.,2013-03-04 03:33:00,
2013-03-03 19:38:00,53.9,50.7,29.97,SW,232,0.0,2.0,89,0.00,,,0.00,0,HR-IXPWINDi_r2_v1.2.,2013-03-04 03:38:00,
2013-03-03 19:43:00,53.9,50.7,29.97,ESE,103,0.0,2.0,89,0.00,,,0.00,0,HR-IXPWINDi_r2_v1.2.,2013-03-04 03:43:00,
2013-03-03 19:48:00,53.7,50.8,29.97,ESE,103,0.0,2.0,90,0.00,,,0.00,0,HR-IXPWINDi_r2_v1.2.,2013-03-04 03:48:00,
2013-03-03 19:53:00,53.7,50.8,29.97,ESE,103,0.0,0.0,90,0.00,,,0.00,0,HR-IXPWINDi_r2_v1.2.,2013-03-04 03:53:00,
2013-03-03 19:59:00,53.6,50.7,29.98,ESE,113,0.0,2.0,90,0.00,,,0.00,0,HR-IXPWINDi_r2_v1.2.,2013-03-04 03:59:00,
2013-03-03 20:04:00,53.7,50.8,29.98,ESE,121,0.0,2.0,90,0.00,,,0.00,0,HR-IXPWINDi_r2_v1.2.,2013-03-04 04:04:00,
2013-03-03 20:09:00,53.7,50.8,29.98,ESE,121,0.0,2.0,90,0.00,,,0.00,0,HR-IXPWINDi_r2_v1.2.,2013-03-04 04:09:00,
2013-03-03 20:14:00,53.7,50.5,29.97,ESE,121,0.0,1.0,89,0.00,,,0.00,0,HR-IXPWINDi_r2_v1.2.,2013-03-04 04:14:00,
2013-03-03 20:20:00,53.7,50.8,29.98,ESE,121,0.0,1.0,90,0.00,,,0.00,0,HR-IXPWINDi_r2_v1.2.,2013-03-04 04:20:00,
2013-03-03 20:25:00,53.7,50.8,29.98,SSE,165,1.0,2.0,90,0.00,,,0.00,0,HR-IXPWINDi_r2_v1.2.,2013-03-04 04:25:00,
2013-03-03 20:30:00,53.7,50.8,29.98,SSE,165,0.0,2.0,90,0.00,,,0.00,0,HR-IXPWINDi_r2_v1.2.,2013-03-04 04:30:00,
2013-03-03 20:35:00,53.7,50.8,29.98,SSE,165,0.0,2.0,90,0.00,,,0.00,0,HR-IXPWINDi_r2_v1.2.,2013-03-04 04:35:00,
2013-03-03 20:41:00,53.7,50.8,29.98,SSE,165,0.0,2.0,90,0.00,,,0.00,0,HR-IXPWINDi_r2_v1.2.,2013-03-04 04:41:00,
2013-03-03 20:46:00,53.7,50.8,29.98,SSE,165,0.0,2.0,90,0.00,,,0.00,0,HR-IXPWINDi_r2_v1.2.,2013-03-04 04:46:00,
2013-03-03 20:51:00,53.7,50.8,29.98,SSE,165,0.0,2.0,90,0.00,,,0.00,0,HR-IXPWINDi_r2_v1.2.,2013-03-04 04:51:00,
2013-03-03 20:56:00,53.8,50.9,29.98,SSE,165,0.0,0.0,90,0.00,,,0.00,0,HR-IXPWINDi_r2_v1.2.,2013-03-04 04:56:00,
2013-03-03 21:00:00,54.0,50.8,29.98,SSE,165,0.0,0.0,89,0.00,,,0.00,0,HR-IXPWINDi_r2_v1.2.,2013-03-04 05:00:00,
2013-03-03 21:05:00,54.0,50.8,29.98,SSE,165,0.0,0.0,89,0.00,,,0.00,0,HR-IXPWINDi_r2_v1.2.,2013-03-04 05:05:00,
2013-03-03 21:10:00,54.0,50.8,29.98,SSE,165,0.0,0.0,89,0.00,,,0.00,0,HR-IXPWINDi_r2_v1.2.,2013-03-04 05:10:00,
2013-03-03 21:15:00,54.0,50.8,29.98,SSE,165,0.0,1.0,89,0.00,,,0.00,0,HR-IXPWINDi_r2_v1.2.,2013-03-04 05:15:00,
2013-03-03 21:20:00,53.9,50.7,29.98,SSE,165,0.0,1.0,89,0.00,,,0.00,0,HR-IXPWINDi_r2_v1.2.,2013-03-04 05:20:00,
2013-03-03 21:26:00,53.9,50.7,29.98,SSE,165,0.0,0.0,89,0.00,,,0.00,0,HR-IXPWINDi_r2_v1.2.,2013-03-04 05:26:00,
2013-03-03 21:31:00,53.9,50.7,29.98,North,11,0.0,4.0,89,0.00,,,0.00,0,HR-IXPWINDi_r2_v1.2.,2013-03-04 05:31:00,
2013-03-03 21:36:00,53.8,50.6,29.98,NNE,12,1.0,4.0,89,0.00,,,0.00,0,HR-IXPWINDi_r2_v1.2.,2013-03-04 05:36:00,
2013-03-03 21:41:00,53.8,50.6,29.98,NNE,12,0.0,1.0,89,0.00,,,0.00,0,HR-IXPWINDi_r2_v1.2.,2013-03-04 05:41:00,
2013-03-03 21:47:00,53.6,50.1,29.98,NNE,13,0.0,1.0,88,0.00,,,0.00,0,HR-IXPWINDi_r2_v1.2.,2013-03-04 05:47:00,
2013-03-03 21:52:00,53.4,49.9,29.98,NNE,13,0.0,1.0,88,0.00,,,0.00,0,HR-IXPWINDi_r2_v1.2.,2013-03-04 05:52:00,
2013-03-03 21:57:00,53.2,49.7,29.98,NNE,13,1.0,2.0,88,0.00,,,0.00,0,HR-IXPWINDi_r2_v1.2.,2013-03-04 05:57:00,
2013-03-03 22:02:00,52.9,49.7,29.98,NNW,348,0.0,2.0,89,0.00,,,0.00,0,HR-IXPWINDi_r2_v1.2.,2013-03-04 06:02:00,
2013-03-03 22:08:00,52.7,49.5,29.98,NNW,347,0.0,2.0,89,0.00,,,0.00,0,HR-IXPWINDi_r2_v1.2.,2013-03-04 06:08:00,
2013-03-03 22:13:00,52.0,48.8,29.98,NNW,347,0.0,2.0,89,0.00,,,0.00,0,HR-IXPWINDi_r2_v1.2.,2013-03-04 06:13:00,
2013-03-03 22:18:00,51.8,48.9,29.98,NNW,347,0.0,0.0,90,0.00,,,0.00,0,HR-IXPWINDi_r2_v1.2.,2013-03-04 06:18:00,
2013-03-03 22:23:00,51.5,48.6,29.98,NNW,347,0.0,0.0,90,0.00,,,0.00,0,HR-IXPWINDi_r2_v1.2.,2013-03-04 06:23:00,
2013-03-03 22:29:00,51.0,48.1,29.98,NNW,347,1.0,1.0,90,0.00,,,0.00,0,HR-IXPWINDi_r2_v1.2.,2013-03-04 06:29:00,
2013-03-03 22:34:00,50.8,48.2,29.98,NNW,347,0.0,2.0,91,0.00,,,0.00,0,HR-IXPWINDi_r2_v1.2.,2013-03-04 06:34:00,
2013-03-03 22:39:00,50.3,47.7,29.98,NNW,347,0.0,2.0,91,0.00,,,0.00,0,HR-IXPWINDi_r2_v1.2.,2013-03-04 06:39:00,
2013-03-03 22:44:00,50.2,47.6,29.98,NNW,347,0.0,1.0,91,0.00,,,0.00,0,HR-IXPWINDi_r2_v1.2.,2013-03-04 06:44:00,
2013-03-03 22:49:00,49.8,47.2,29.98,NNW,347,0.0,1.0,91,0.00,,,0.00,0,HR-IXPWINDi_r2_v1.2.,2013-03-04 06:49:00,
2013-03-03 22:54:00,49.9,47.6,29.98,NNW,341,1.0,2.0,92,0.00,,,0.00,0,HR-IXPWINDi_r2_v1.2.,2013-03-04 06:54:00,
2013-03-03 23:00:00,50.0,47.7,29.97,NNW,341,1.0,2.0,92,0.00,,,0.00,0,HR-IXPWINDi_r2_v1.2.,2013-03-04 07:00:00,
2013-03-03 23:05:00,50.0,47.7,29.98,NW,317,1.0,3.0,92,0.00,,,0.00,0,HR-IXPWINDi_r2_v1.2.,2013-03-04 07:05:00,
2013-03-03 23:10:00,49.9,47.6,29.98,NW,316,0.0,3.0,92,0.00,,,0.00,0,HR-IXPWINDi_r2_v1.2.,2013-03-04 07:10:00,
2013-03-03 23:15:00,49.5,47.2,29.97,NW,316,0.0,3.0,92,0.00,,,0.00,0,HR-IXPWINDi_r2_v1.2.,2013-03-04 07:15:00,
2013-03-03 23:20:00,49.1,46.8,29.98,NW,316,0.0,1.0,92,0.00,,,0.00,0,HR-IXPWINDi_r2_v1.2.,2013-03-04 07:20:00,
2013-03-03 23:25:00,49.0,46.7,29.98,NW,325,1.0,3.0,92,0.00,,,0.00,0,HR-IXPWINDi_r2_v1.2.,2013-03-04 07:25:00,
2013-03-03 23:31:00,48.8,46.5,29.98,NW,325,1.0,3.0,92,0.00,,,0.00,0,HR-IXPWINDi_r2_v1.2.,2013-03-04 07:31:00,
2013-03-03 23:36:00,48.8,46.5,29.98,NW,325,1.0,3.0,92,0.00,,,0.00,0,HR-IXPWINDi_r2_v1.2.,2013-03-04 07:36:00,
2013-03-03 23:41:00,48.5,46.2,29.98,NW,325,0.0,3.0,92,0.00,,,0.00,0,HR-IXPWINDi_r2_v1.2.,2013-03-04 07:41:00,
2013-03-03 23:46:00,48.4,46.1,29.98,NNW,332,1.0,2.0,92,0.00,,,0.00,0,HR-IXPWINDi_r2_v1.2.,2013-03-04 07:46:00,
2013-03-03 23:52:00,48.4,46.1,29.98,NNW,330,0.0,3.0,92,0.00,,,0.00,0,HR-IXPWINDi_r2_v1.2.,2013-03-04 07:52:00,
2013-03-03 23:57:00,48.3,46.3,29.98,NNW,330,0.0,3.0,93,0.00,,,0.00,0,HR-IXPWINDi_r2_v1.2.,2013-03-04 07:57:00,